createdAt,value
2017-11-15T00:00:19.860Z,24.30
2017-11-15T00:02:47.990Z,25.27
2017-11-15T00:05:16.916Z,27.30
2017-11-15T00:07:45.054Z,26.42
2017-11-15T00:10:13.978Z,26.10
2017-11-15T00:12:42.102Z,24.02
2017-11-15T00:15:10.257Z,24.35
2017-11-15T00:17:38.394Z,27.60
2017-11-15T00:20:06.562Z,27.37
2017-11-15T00:22:37.496Z,26.90
2017-11-15T00:25:05.650Z,26.55
2017-11-15T00:27:33.783Z,28.02
2017-11-15T00:30:01.951Z,29.27
2017-11-15T00:32:30.084Z,28.98
2017-11-15T00:34:59.016Z,30.80
2017-11-15T00:37:27.149Z,32.65
2017-11-15T00:39:56.080Z,34.15
2017-11-15T00:42:24.211Z,30.00
2017-11-15T00:44:53.135Z,31.75
2017-11-15T00:47:21.285Z,35.10
2017-11-15T00:49:49.466Z,32.00
2017-11-15T00:52:17.592Z,31.12
2017-11-15T00:54:45.722Z,31.87
2017-11-15T00:57:13.887Z,33.08
2017-11-15T00:59:42.020Z,29.20
2017-11-15T01:02:10.179Z,32.00
2017-11-15T01:04:38.303Z,30.92
2017-11-15T01:07:06.468Z,28.60
2017-11-15T01:09:34.599Z,26.90
2017-11-15T01:12:02.749Z,28.52
2017-11-15T01:14:30.877Z,28.62
2017-11-15T01:16:59.031Z,29.77
2017-11-15T01:19:27.156Z,28.85
2017-11-15T01:21:55.310Z,33.00
2017-11-15T01:24:23.441Z,32.28
2017-11-15T01:26:51.598Z,30.48
2017-11-15T01:29:19.723Z,31.33
2017-11-15T01:31:48.646Z,34.03
2017-11-15T01:34:16.774Z,34.88
2017-11-15T01:36:45.716Z,34.70
2017-11-15T01:39:13.837Z,35.00
2017-11-15T01:41:42.749Z,34.13
2017-11-15T01:44:10.898Z,37.03
2017-11-15T01:46:39.034Z,36.83
2017-11-15T01:49:07.196Z,35.28
2017-11-15T01:51:35.319Z,38.33
2017-11-15T01:54:03.482Z,37.45
2017-11-15T01:56:31.624Z,36.78
2017-11-15T01:58:59.783Z,37.20
2017-11-15T02:01:27.907Z,35.38
2017-11-15T02:03:56.081Z,35.72
2017-11-15T02:06:24.989Z,32.53
2017-11-15T02:08:53.142Z,33.70
2017-11-15T02:11:21.274Z,34.40
2017-11-15T02:13:49.431Z,32.65
2017-11-15T02:16:17.571Z,28.92
2017-11-15T02:18:45.732Z,30.83
2017-11-15T02:21:13.865Z,30.27
2017-11-15T02:23:42.014Z,31.00
2017-11-15T02:26:10.146Z,31.98
2017-11-15T02:28:38.303Z,30.70
2017-11-15T02:31:06.432Z,29.37
2017-11-15T02:33:35.348Z,29.80
2017-11-15T02:36:03.479Z,30.65
2017-11-15T02:38:32.396Z,32.80
2017-11-15T02:41:00.529Z,30.08
2017-11-15T02:43:28.683Z,32.85
2017-11-15T02:45:56.822Z,30.60
2017-11-15T02:48:24.975Z,30.23
2017-11-15T02:53:27.504Z,31.15
2017-11-15T02:55:55.631Z,31.95
2017-11-15T02:58:23.759Z,29.40
2017-11-15T03:00:51.929Z,29.85
2017-11-15T03:03:20.059Z,30.73
2017-11-15T03:05:48.210Z,32.10
2017-11-15T03:08:16.348Z,32.88
2017-11-15T03:10:44.520Z,30.80
2017-11-15T03:13:12.641Z,30.83
2017-11-15T03:15:40.814Z,32.78
2017-11-15T03:18:08.941Z,29.02
2017-11-15T03:20:37.098Z,29.95
2017-11-15T03:23:05.231Z,27.70
2017-11-15T03:25:33.390Z,30.62
2017-11-15T03:28:01.530Z,26.35
2017-11-15T03:30:29.689Z,26.95
2017-11-15T03:32:57.827Z,28.17
2017-11-15T03:35:25.987Z,25.27
2017-11-15T03:37:54.125Z,23.52
2017-11-15T03:40:22.283Z,27.98
2017-11-15T03:42:50.410Z,24.17
2017-11-15T03:45:18.565Z,25.80
2017-11-15T03:47:46.703Z,24.98
2017-11-15T03:50:14.858Z,25.83
2017-11-15T03:52:43.751Z,23.62
2017-11-15T03:55:11.908Z,25.75
2017-11-15T03:57:40.798Z,23.70
2017-11-15T04:00:08.952Z,23.70
2017-11-15T04:02:37.094Z,26.85
2017-11-15T04:05:05.272Z,25.75
2017-11-15T04:07:33.402Z,24.37
2017-11-15T04:10:01.545Z,22.92
2017-11-15T04:12:29.723Z,24.27
2017-11-15T04:14:57.862Z,21.95
2017-11-15T04:17:26.023Z,22.90
2017-11-15T04:19:54.155Z,23.08
2017-11-15T04:22:22.306Z,27.05
2017-11-15T04:24:50.440Z,24.10
2017-11-15T04:27:18.593Z,25.23
2017-11-15T04:29:46.726Z,25.02
2017-11-15T04:32:14.887Z,22.27
2017-11-15T04:34:43.016Z,23.65
2017-11-15T04:37:11.165Z,25.15
2017-11-15T04:39:39.302Z,24.17
2017-11-15T04:42:07.459Z,25.62
2017-11-15T04:44:35.587Z,25.92
2017-11-15T04:47:03.743Z,26.62
2017-11-15T04:49:31.872Z,23.40
2017-11-15T04:52:00.026Z,23.95
2017-11-15T04:54:28.918Z,23.35
2017-11-15T04:56:57.074Z,23.70
2017-11-15T04:59:25.976Z,26.12
2017-11-15T05:01:54.132Z,25.42
2017-11-15T05:04:23.033Z,24.75
2017-11-15T05:06:51.192Z,25.92
2017-11-15T05:09:19.323Z,24.77
2017-11-15T05:11:47.483Z,26.60
2017-11-15T05:14:15.611Z,27.30
2017-11-15T05:16:43.743Z,28.25
2017-11-15T05:19:11.903Z,27.08
2017-11-15T05:21:40.035Z,27.80
2017-11-15T05:24:08.190Z,28.58
2017-11-15T05:26:36.333Z,26.35
2017-11-15T05:29:04.495Z,26.08
2017-11-15T05:31:32.622Z,26.73
2017-11-15T05:34:00.791Z,29.50
2017-11-15T05:36:28.919Z,26.65
2017-11-15T05:38:57.091Z,25.12
2017-11-15T05:41:25.214Z,24.48
2017-11-15T05:43:53.368Z,26.90
2017-11-15T05:46:21.493Z,29.87
2017-11-15T05:48:49.644Z,25.12
2017-11-15T05:51:17.806Z,26.52
2017-11-15T05:53:45.954Z,26.75
2017-11-15T05:56:14.086Z,26.05
2017-11-15T05:58:42.235Z,24.15
2017-11-15T06:01:10.364Z,26.83
2017-11-15T06:03:38.525Z,25.90
2017-11-15T06:06:06.668Z,25.85
2017-11-15T06:08:34.841Z,29.20
2017-11-15T06:11:04.023Z,27.45
2017-11-15T06:13:32.176Z,28.80
2017-11-15T06:16:00.412Z,25.77
2017-11-15T06:18:28.623Z,27.95
2017-11-15T06:20:56.634Z,24.75
2017-11-15T06:23:24.862Z,27.30
2017-11-15T06:25:53.809Z,25.77
2017-11-15T06:28:21.889Z,26.17
2017-11-15T06:30:50.157Z,29.10
2017-11-15T06:33:18.316Z,26.92
2017-11-15T06:35:46.522Z,28.30
2017-11-15T06:38:14.595Z,31.90
2017-11-15T06:40:42.769Z,34.35
2017-11-15T06:43:10.894Z,30.33
2017-11-15T06:45:39.050Z,29.33
2017-11-15T06:48:07.186Z,31.15
2017-11-15T06:50:35.354Z,32.25
2017-11-15T06:53:03.486Z,30.37
2017-11-15T06:55:31.647Z,28.48
2017-11-15T06:57:59.779Z,27.80
2017-11-15T07:00:27.935Z,30.58
2017-11-15T07:02:56.076Z,24.67
2017-11-15T07:05:24.253Z,29.17
2017-11-15T07:07:52.392Z,25.83
2017-11-15T07:10:20.541Z,28.05
2017-11-15T07:12:48.711Z,29.67
2017-11-15T07:15:16.876Z,27.60
2017-11-15T07:17:45.003Z,28.15
2017-11-15T07:20:13.159Z,27.98
2017-11-15T07:22:41.291Z,28.10
2017-11-15T07:25:10.210Z,29.60
2017-11-15T07:27:38.355Z,26.70
2017-11-15T07:30:07.275Z,31.02
2017-11-15T07:32:35.408Z,27.17
2017-11-15T07:35:03.572Z,32.72
2017-11-15T07:37:31.712Z,27.80
2017-11-15T07:39:59.858Z,29.55
2017-11-15T07:42:27.988Z,27.35
2017-11-15T07:44:56.152Z,30.52
2017-11-15T07:47:24.281Z,29.77
2017-11-15T07:49:52.410Z,27.40
2017-11-15T07:52:20.571Z,27.77
2017-11-15T07:54:48.712Z,28.50
2017-11-15T07:57:16.862Z,27.00
2017-11-15T07:59:44.999Z,26.80
2017-11-15T08:02:13.159Z,23.80
2017-11-15T08:04:41.293Z,23.62
2017-11-15T08:07:09.449Z,23.40
2017-11-15T08:09:37.580Z,20.98
2017-11-15T08:12:05.749Z,19.40
2017-11-15T08:14:35.781Z,22.02
2017-11-15T08:17:03.962Z,22.80
2017-11-15T08:19:32.099Z,20.75
2017-11-15T08:22:00.863Z,21.25
2017-11-15T08:24:28.987Z,23.38
2017-11-15T08:26:57.147Z,19.58
2017-11-15T08:29:25.273Z,20.70
2017-11-15T08:31:54.196Z,23.00
2017-11-15T08:34:22.334Z,23.10
2017-11-15T08:36:50.483Z,20.25
2017-11-15T08:39:18.624Z,20.20
2017-11-15T08:41:46.778Z,20.33
2017-11-15T08:44:14.907Z,20.83
2017-11-15T08:46:43.035Z,21.30
2017-11-15T08:49:11.954Z,20.35
2017-11-15T08:51:40.091Z,22.17
2017-11-15T08:54:08.240Z,20.58
2017-11-15T08:56:37.132Z,21.42
2017-11-15T08:59:05.284Z,19.05
2017-11-15T09:01:33.416Z,22.23
2017-11-15T09:04:01.588Z,18.77
2017-11-15T09:06:29.715Z,19.80
2017-11-15T09:08:57.870Z,18.83
2017-11-15T09:11:25.993Z,17.15
2017-11-15T09:13:54.143Z,15.27
2017-11-15T09:16:22.280Z,16.02
2017-11-15T09:18:50.440Z,14.75
2017-11-15T09:21:18.575Z,12.85
2017-11-15T09:23:46.727Z,13.27
2017-11-15T09:26:14.853Z,11.82
2017-11-15T09:28:43.021Z,12.32
2017-11-15T09:31:11.158Z,11.88
2017-11-15T09:33:40.082Z,11.63
2017-11-15T09:36:08.217Z,12.10
2017-11-15T09:38:37.138Z,11.50
2017-11-15T09:41:05.265Z,11.65
2017-11-15T09:43:33.419Z,12.10
2017-11-15T09:46:01.549Z,9.85
2017-11-15T09:48:29.711Z,10.00
2017-11-15T09:50:57.838Z,10.75
2017-11-15T09:53:25.996Z,10.50
2017-11-15T09:55:54.125Z,11.35
2017-11-15T09:58:22.283Z,12.50
2017-11-15T10:00:50.420Z,11.02
2017-11-15T10:03:18.586Z,11.57
2017-11-15T10:05:46.715Z,11.60
2017-11-15T10:08:14.897Z,13.82
2017-11-15T10:10:43.059Z,11.75
2017-11-15T10:13:11.996Z,12.40
2017-11-15T10:15:40.119Z,13.57
2017-11-15T10:18:09.024Z,13.10
2017-11-15T10:20:37.186Z,15.95
2017-11-15T10:23:06.101Z,16.23
2017-11-15T10:25:34.266Z,16.42
2017-11-15T10:28:02.410Z,17.10
2017-11-15T10:30:30.606Z,16.35
2017-11-15T10:32:58.750Z,19.83
2017-11-15T10:35:26.929Z,17.40
2017-11-15T10:37:55.068Z,20.05
2017-11-15T10:40:23.236Z,18.60
2017-11-15T10:42:51.369Z,23.30
2017-11-15T10:45:20.297Z,22.77
2017-11-15T10:47:48.445Z,24.05
2017-11-15T10:50:16.594Z,23.58
2017-11-15T10:52:44.741Z,24.23
2017-11-15T10:55:12.908Z,25.60
2017-11-15T10:57:41.038Z,25.33
2017-11-15T11:00:09.254Z,27.60
2017-11-15T11:02:37.390Z,24.63
2017-11-15T11:05:05.538Z,26.85
2017-11-15T11:07:34.430Z,28.30
2017-11-15T11:10:02.582Z,29.50
2017-11-15T11:12:30.720Z,28.55
2017-11-15T11:14:58.885Z,28.00
2017-11-15T11:17:27.947Z,30.00
2017-11-15T11:19:56.106Z,29.00
2017-11-15T11:22:24.240Z,26.65
2017-11-15T11:24:52.588Z,29.58
2017-11-15T11:27:21.575Z,29.45
2017-11-15T11:29:50.492Z,29.30
2017-11-15T11:32:18.627Z,32.30
2017-11-15T11:34:47.545Z,30.73
2017-11-15T11:37:15.669Z,28.75
2017-11-15T11:39:43.827Z,30.05
2017-11-15T11:42:11.955Z,29.83
2017-11-15T11:44:40.091Z,27.70
2017-11-15T11:47:08.252Z,30.67
2017-11-15T11:49:36.426Z,29.65
2017-11-15T11:52:04.583Z,30.27
2017-11-15T11:54:32.725Z,31.65
2017-11-15T11:57:00.883Z,28.12
2017-11-15T11:59:29.781Z,29.00
2017-11-15T12:01:57.963Z,30.33
2017-11-15T12:04:26.135Z,28.90
2017-11-15T12:06:54.285Z,27.45
2017-11-15T12:09:22.444Z,27.60
2017-11-15T12:11:50.590Z,28.20
2017-11-15T12:14:18.751Z,26.62
2017-11-15T12:16:46.926Z,28.05
2017-11-15T12:19:15.061Z,28.55
2017-11-15T12:21:43.983Z,28.08
2017-11-15T12:24:12.119Z,25.40
2017-11-15T12:26:40.267Z,26.90
2017-11-15T12:29:08.443Z,28.98
2017-11-15T12:31:36.600Z,27.05
2017-11-15T12:34:04.750Z,25.65
2017-11-15T12:36:32.880Z,22.77
2017-11-15T12:39:01.051Z,27.75
2017-11-15T12:41:29.179Z,24.37
2017-11-15T12:43:57.336Z,25.90
2017-11-15T12:46:25.468Z,23.87
2017-11-15T12:48:53.618Z,24.48
2017-11-15T12:51:21.768Z,22.77
2017-11-15T12:53:49.930Z,24.70
2017-11-15T12:56:18.070Z,22.45
2017-11-15T12:58:46.248Z,23.45
2017-11-15T13:01:14.387Z,22.92
2017-11-15T13:03:42.551Z,22.50
2017-11-15T13:06:10.686Z,22.35
2017-11-15T13:08:38.852Z,22.75
2017-11-15T13:11:06.994Z,22.35
2017-11-15T13:13:35.211Z,21.73
2017-11-15T13:16:03.345Z,23.10
2017-11-15T13:18:31.500Z,23.25
2017-11-15T13:20:59.654Z,20.33
2017-11-15T13:23:27.805Z,23.40
2017-11-15T13:25:55.958Z,21.55
2017-11-15T13:28:24.111Z,22.48
2017-11-15T13:30:52.247Z,24.08
2017-11-15T13:35:54.874Z,21.50
2017-11-15T13:38:23.044Z,24.33
2017-11-15T13:40:51.176Z,23.67
2017-11-15T13:43:19.315Z,23.98
2017-11-15T13:45:47.470Z,20.85
2017-11-15T13:48:15.603Z,22.73
2017-11-15T13:50:46.590Z,21.75
2017-11-15T13:53:15.087Z,21.55
2017-11-15T13:55:43.296Z,21.23
2017-11-15T13:58:11.545Z,25.05
2017-11-15T14:00:39.703Z,20.62
2017-11-15T14:03:07.923Z,22.17
2017-11-15T14:05:37.524Z,20.05
2017-11-15T14:08:05.699Z,19.58
2017-11-15T14:10:33.879Z,21.70
2017-11-15T14:13:02.019Z,21.90
2017-11-15T14:15:30.947Z,22.77
2017-11-15T14:17:59.078Z,19.23
2017-11-15T14:20:27.237Z,20.02
2017-11-15T14:22:55.367Z,20.40
2017-11-15T14:25:23.536Z,19.55
2017-11-15T14:27:51.657Z,20.17
2017-11-15T14:30:19.811Z,19.50
2017-11-15T14:32:47.942Z,17.98
2017-11-15T14:35:16.112Z,19.27
2017-11-15T14:37:44.247Z,18.30
2017-11-15T14:40:12.410Z,19.30
2017-11-15T14:42:40.543Z,18.60
2017-11-15T14:45:08.703Z,18.15
2017-11-15T14:47:36.833Z,17.50
2017-11-15T14:50:04.997Z,19.05
2017-11-15T14:52:33.142Z,19.50
2017-11-15T14:55:01.320Z,19.52
2017-11-15T14:57:29.456Z,18.08
2017-11-15T14:59:58.430Z,18.62
2017-11-15T15:02:26.574Z,20.23
2017-11-15T15:04:54.726Z,19.60
2017-11-15T15:07:22.858Z,19.37
2017-11-15T15:09:51.024Z,18.83
2017-11-15T15:12:19.167Z,18.30
2017-11-15T15:14:47.330Z,22.05
2017-11-15T15:17:15.471Z,18.87
2017-11-15T15:19:43.634Z,17.92
2017-11-15T15:22:11.758Z,18.87
2017-11-15T15:24:39.919Z,17.92
2017-11-15T15:27:08.051Z,18.00
2017-11-15T15:29:36.211Z,18.50
2017-11-15T15:32:04.345Z,16.85
2017-11-15T15:34:32.502Z,19.40
2017-11-15T15:37:00.702Z,19.85
2017-11-15T15:39:28.840Z,18.62
2017-11-15T15:41:57.779Z,19.45
2017-11-15T15:44:25.919Z,18.30
2017-11-15T15:46:54.090Z,18.45
2017-11-15T15:49:22.252Z,18.42
2017-11-15T15:51:50.411Z,21.15
2017-11-15T15:54:19.315Z,18.58
2017-11-15T15:56:47.475Z,20.12
2017-11-15T15:59:16.381Z,20.02
2017-11-15T16:01:44.555Z,20.58
2017-11-15T16:04:12.709Z,19.98
2017-11-15T16:06:40.891Z,19.40
2017-11-15T16:09:09.086Z,22.05
2017-11-15T16:11:37.285Z,22.98
2017-11-15T16:14:05.505Z,21.25
2017-11-15T16:16:34.436Z,21.37
2017-11-15T16:19:02.576Z,22.77
2017-11-15T16:21:31.501Z,22.67
2017-11-15T16:23:59.635Z,21.48
2017-11-15T16:26:27.762Z,22.30
2017-11-15T16:28:55.934Z,22.67
2017-11-15T16:31:24.072Z,23.30
2017-11-15T16:33:52.235Z,25.65
2017-11-15T16:36:21.196Z,22.73
2017-11-15T16:38:49.368Z,23.27
2017-11-15T16:41:17.509Z,24.20
2017-11-15T16:43:45.672Z,22.30
2017-11-15T16:46:13.807Z,24.23
2017-11-15T16:48:41.962Z,22.60
2017-11-15T16:51:10.098Z,25.98
2017-11-15T16:53:38.251Z,24.15
2017-11-15T16:56:06.382Z,23.75
2017-11-15T16:58:34.543Z,21.85
2017-11-15T17:01:02.666Z,24.00
2017-11-15T17:03:30.838Z,25.25
2017-11-15T17:05:58.979Z,23.48
2017-11-15T17:08:27.138Z,23.02
2017-11-15T17:10:55.297Z,24.35
2017-11-15T17:13:23.426Z,24.20
2017-11-15T17:15:51.586Z,24.58
2017-11-15T17:18:19.749Z,22.10
2017-11-15T17:20:47.903Z,26.05
2017-11-15T17:23:16.040Z,24.37
2017-11-15T17:25:44.218Z,28.85
2017-11-15T17:28:12.364Z,22.75
2017-11-15T17:30:40.527Z,26.17
2017-11-15T17:33:08.656Z,22.77
2017-11-15T17:35:36.827Z,23.92
2017-11-15T17:38:05.059Z,27.23
2017-11-15T17:40:33.282Z,25.73
2017-11-15T17:43:01.429Z,22.77
2017-11-15T17:45:29.607Z,25.23
2017-11-15T17:47:57.973Z,26.70
2017-11-15T17:50:26.244Z,29.58
2017-11-15T17:52:54.382Z,28.12
2017-11-15T17:55:22.556Z,25.40
2017-11-15T17:57:50.685Z,25.45
2017-11-15T18:00:19.193Z,25.02
2017-11-15T18:02:47.402Z,26.10
2017-11-15T18:05:15.590Z,27.10
2017-11-15T18:07:43.732Z,23.17
2017-11-15T18:10:12.143Z,23.10
2017-11-15T18:12:40.333Z,24.33
2017-11-15T18:15:09.298Z,23.80
2017-11-15T18:17:37.628Z,25.60
2017-11-15T18:20:06.778Z,28.52
2017-11-15T18:22:34.942Z,27.35
2017-11-15T18:25:03.247Z,26.50
2017-11-15T18:27:31.709Z,24.75
2017-11-15T18:30:00.198Z,25.80
2017-11-15T18:32:29.814Z,25.58
2017-11-15T18:34:58.935Z,27.33
2017-11-15T18:37:27.905Z,29.15
2017-11-15T18:39:57.200Z,25.77
2017-11-15T18:42:26.328Z,26.55
2017-11-15T18:44:55.424Z,25.83
2017-11-15T18:47:23.667Z,25.42
2017-11-15T18:49:52.302Z,27.05
2017-11-15T18:52:20.673Z,26.40
2017-11-15T18:54:49.115Z,26.55
2017-11-15T18:57:17.935Z,25.83
2017-11-15T18:59:46.606Z,27.55
2017-11-15T19:02:15.592Z,28.35
2017-11-15T19:04:44.296Z,28.02
2017-11-15T19:07:12.823Z,30.00
2017-11-15T19:09:40.972Z,26.27
2017-11-15T19:12:09.222Z,27.98
2017-11-15T19:14:37.560Z,47.45
2017-11-15T19:17:05.981Z,26.08
2017-11-15T19:19:34.151Z,45.45
2017-11-15T19:22:02.343Z,26.48
2017-11-15T19:24:30.470Z,25.88
2017-11-15T19:26:58.631Z,24.37
2017-11-15T19:29:26.833Z,28.62
2017-11-15T19:31:55.014Z,29.52
2017-11-15T19:34:23.154Z,28.02
2017-11-15T19:36:51.604Z,23.77
2017-11-15T19:39:19.864Z,25.27
2017-11-15T19:41:48.031Z,27.27
2017-11-15T19:44:16.160Z,25.80
2017-11-15T19:46:44.362Z,31.58
2017-11-15T19:49:12.504Z,35.83
2017-11-15T19:51:40.840Z,33.60
2017-11-15T19:54:09.077Z,36.35
2017-11-15T19:56:38.032Z,36.40
2017-11-15T19:59:06.214Z,38.25
2017-11-15T20:01:34.436Z,40.58
2017-11-15T20:04:02.581Z,38.20
2017-11-15T20:06:30.793Z,46.67
2017-11-15T20:08:58.950Z,47.75
2017-11-15T20:11:27.218Z,43.13
2017-11-15T20:13:55.383Z,31.58
2017-11-15T20:16:23.557Z,42.55
2017-11-15T20:18:52.636Z,31.17
2017-11-15T20:21:20.784Z,42.92
2017-11-15T20:23:49.734Z,36.50
2017-11-15T20:26:17.952Z,38.05
2017-11-15T20:28:46.120Z,44.05
2017-11-15T20:31:14.284Z,32.85
2017-11-15T20:33:42.477Z,27.70
2017-11-15T20:36:10.924Z,34.40
2017-11-15T20:38:40.314Z,29.23
2017-11-15T20:41:08.470Z,37.78
2017-11-15T20:43:36.683Z,31.92
2017-11-15T20:46:04.858Z,31.90
2017-11-15T20:48:33.074Z,68.65
2017-11-15T20:51:01.231Z,56.90
2017-11-15T20:53:29.507Z,46.03
2017-11-15T20:55:57.672Z,48.45
2017-11-15T20:58:25.886Z,32.58
2017-11-15T21:00:54.097Z,46.45
2017-11-15T21:03:22.293Z,36.60
2017-11-15T21:05:50.503Z,29.35
2017-11-15T21:08:19.452Z,18.40
2017-11-15T21:10:47.586Z,29.30
2017-11-15T21:13:16.540Z,40.53
2017-11-15T21:15:44.684Z,37.88
2017-11-15T21:18:12.852Z,49.67
2017-11-15T21:20:40.994Z,48.78
2017-11-15T21:23:09.923Z,45.75
2017-11-15T21:25:38.058Z,62.83
2017-11-15T21:28:06.222Z,49.63
2017-11-15T21:30:34.366Z,52.55
2017-11-15T21:33:02.525Z,52.00
2017-11-15T21:35:30.676Z,45.72
2017-11-15T21:37:58.843Z,53.00
2017-11-15T21:40:27.762Z,48.25
2017-11-15T21:42:55.943Z,44.78
2017-11-15T21:45:24.075Z,46.65
2017-11-15T21:47:52.207Z,49.55
2017-11-15T21:50:20.377Z,50.58
2017-11-15T21:52:48.513Z,43.17
2017-11-15T21:55:16.696Z,41.05
2017-11-15T21:57:44.826Z,42.30
2017-11-15T22:00:12.981Z,47.28
2017-11-15T22:02:41.115Z,44.97
2017-11-15T22:05:09.275Z,44.75
2017-11-15T22:07:37.411Z,49.25
2017-11-15T22:10:05.581Z,49.08
2017-11-15T22:12:33.754Z,48.25
2017-11-15T22:15:01.911Z,49.55
2017-11-15T22:17:30.042Z,50.55
2017-11-15T22:19:58.208Z,50.50
2017-11-15T22:22:27.107Z,49.10
2017-11-15T22:24:55.275Z,53.22
2017-11-15T22:27:24.166Z,48.28
2017-11-15T22:29:52.328Z,47.30
2017-11-15T22:32:21.222Z,48.50
2017-11-15T22:34:49.394Z,46.33
2017-11-15T22:37:18.290Z,46.55
2017-11-15T22:39:46.461Z,51.33
2017-11-15T22:42:15.360Z,52.22
2017-11-15T22:44:43.520Z,49.42
2017-11-15T22:47:12.417Z,39.58
2017-11-15T22:49:40.576Z,47.78
2017-11-15T22:52:08.705Z,45.00
2017-11-15T22:54:36.872Z,46.08
2017-11-15T22:57:05.006Z,51.35
2017-11-15T22:59:33.178Z,48.42
2017-11-15T23:02:02.079Z,49.05
2017-11-15T23:04:30.211Z,51.88
2017-11-15T23:06:58.404Z,54.20
2017-11-15T23:09:26.534Z,45.58
2017-11-15T23:14:29.115Z,44.88
2017-11-15T23:16:57.275Z,40.55
2017-11-15T23:19:25.403Z,39.50
2017-11-15T23:21:53.567Z,38.15
2017-11-15T23:24:21.707Z,39.25
2017-11-15T23:26:49.879Z,37.17
2017-11-15T23:29:18.002Z,31.92
2017-11-15T23:31:46.171Z,36.00
2017-11-15T23:34:14.298Z,35.40
2017-11-15T23:36:42.463Z,39.78
2017-11-15T23:39:10.594Z,35.78
2017-11-15T23:41:38.753Z,30.95
2017-11-15T23:44:06.886Z,34.45
2017-11-15T23:46:35.119Z,36.55
2017-11-15T23:49:03.256Z,31.48
2017-11-15T23:51:31.419Z,35.15
2017-11-15T23:53:59.554Z,31.80
2017-11-15T23:56:27.711Z,29.83
2017-11-15T23:58:55.847Z,33.45
